Latest Weather Observations for Esperance

IDW60801

Issued at 5:23 am WST Saturday 20 July 2019 (issued every 10 minutes, with the page automatically refreshed every 10 minutes)

About weather observations | Map of weather stations | Latest weather observations for WA | Other Formats
Station Details ID: 009789 Name: ESPERANCE Lat: -33.83 Lon: 121.89 Height: 25.0 m
Data from the previous 72 hours. | See also: Recent months at Esperance
Date/Time
WST
Temp
°C
App
Temp
°C
Dew
Point
°C
Rel
Hum
%
Delta-T
°C
Wind Press
QNH
hPa
Press
MSL
hPa
Rain since
9am
mm
Dir  Spd
km/h
Gust
km/h
Spd
kts
Gust
kts
20/05:13am 9.2 3.3 9.1 99 0.0 WNW 30 41 16 22 1006.2 1006.2 5.6
20/05:00am 9.3 3.4 9.2 99 0.0 WNW 30 44 16 24 1006.0 1006.0 5.6
20/04:45am 9.5 3.6 9.2 98 0.1 WNW 30 46 16 25 1005.6 1005.6 5.2
20/04:38am 9.6 4.1 9.1 97 0.2 WNW 28 46 15 25 1005.3 1005.3 4.8
20/04:30am 9.7 4.6 9.2 97 0.2 WNW 26 35 14 19 1005.2 1005.2 4.8
20/04:12am 10.0 4.6 9.5 97 0.2 WNW 28 44 15 24 1004.9 1004.9 4.8
20/04:11am 10.0 4.6 9.5 97 0.2 WNW 28 44 15 24 1004.9 1004.9 4.8
20/04:01am 10.1 5.1 9.6 97 0.3 WNW 26 44 14 24 1004.7 1004.7 4.8
20/04:00am 10.1 4.8 9.8 98 0.2 WNW 28 44 15 24 1004.5 1004.5 4.8
20/03:47am 10.6 7.1 10.1 97 0.3 W 19 33 10 18 1004.5 1004.5 4.2
20/03:30am 10.7 7.9 10.1 96 0.3 NW 15 20 8 11 1003.7 1003.7 3.8
20/03:20am 10.7 7.8 9.8 94 0.5 WNW 15 20 8 11 1003.8 1003.8 3.8
20/03:00am 11.1 7.5 9.9 92 0.6 W 19 32 10 17 1004.1 1004.1 3.6
20/02:59am 11.2 7.6 9.8 91 0.7 W 19 32 10 17 1004.2 1004.2 3.4
20/02:55am 11.4 7.6 9.8 90 0.8 W 20 35 11 19 1004.1 1004.1 2.6
20/02:40am 11.6 6.4 10.2 91 0.7 W 28 44 15 24 1004.0 1004.0 2.4
20/02:30am 11.6 8.6 10.7 94 0.5 WSW 17 26 9 14 1003.6 1003.6 1.4
20/02:19am 11.8 8.3 10.9 94 0.5 WSW 20 32 11 17 1003.4 1003.4 1.2
20/02:18am 11.8 8.3 10.9 94 0.5 WSW 20 32 11 17 1003.4 1003.4 1.2
20/02:13am 11.8 8.3 11.0 95 0.4 WSW 20 33 11 18 1003.5 1003.5 1.0
20/02:00am 11.4 7.4 10.3 93 0.6 W 22 35 12 19 1003.3 1003.3 1.0
20/01:59am 11.4 7.0 10.3 93 0.6 W 24 39 13 21 1003.4 1003.4 1.0
20/01:48am 12.2 6.9 9.8 85 1.2 W 28 52 15 28 1003.3 1003.3 0.0
20/01:47am 12.3 7.4 9.9 85 1.2 WNW 26 52 14 28 1003.3 1003.3 0.0
20/01:42am 12.3 7.1 10.2 87 1.1 WNW 28 52 15 28 1003.0 1003.0 0.0
20/01:41am 12.2 7.0 10.3 88 1.0 WNW 28 41 15 22 1003.1 1003.1 0.0
20/01:30am 12.3 5.8 10.4 88 1.0 WNW 35 50 19 27 1002.8 1002.8 0.0
20/01:22am 12.7 6.0 9.5 81 1.6 WNW 35 52 19 28 1002.6 1002.6 0.0
20/01:09am 14.0 8.3 8.2 68 2.9 WNW 28 46 15 25 1002.0 1002.0 0.0
20/01:00am 14.3 9.2 7.8 65 3.2 WNW 24 33 13 18 1002.1 1002.1 0.0
20/12:30am 14.5 7.7 6.8 60 3.7 NW 32 46 17 25 1001.6 1001.6 0.0
20/12:06am 15.0 8.5 6.6 57 4.1 NW 30 48 16 26 1001.6 1001.6 0.0
20/12:00am 15.0 8.8 6.3 56 4.2 NW 28 39 15 21 1001.7 1001.7 0.0
 
Date/Time
WST
Temp
°C
App
Temp
°C
Dew
Point
°C
Rel
Hum
%
Delta-T
°C
Wind Press
QNH
hPa
Press
MSL
hPa
Rain since
9am
mm
Dir  Spd
km/h
Gust
km/h
Spd
kts
Gust
kts
19/11:30pm 15.5 9.4 6.8 56 4.3 NW 28 41 15 22 1001.7 1001.7 0.0
19/11:00pm 15.9 9.4 6.3 53 4.7 NW 30 46 16 25 1002.2 1002.2 0.0
19/10:30pm 16.1 9.3 7.1 55 4.5 WNW 32 57 17 31 1002.3 1002.3 0.0
19/10:23pm 16.4 9.9 6.5 52 4.9 W 30 57 16 31 1002.6 1002.6 0.0
19/10:00pm 17.4 9.4 0.1 31 7.5 NNW 32 41 17 22 1001.9 1001.9 0.0
19/09:30pm 17.7 9.9 -0.5 29 7.8 NNW 30 41 16 22 1002.0 1002.0 0.0
19/09:00pm 17.9 10.0 -1.3 27 8.2 NNW 30 43 16 23 1002.4 1002.4 0.0
19/08:30pm 18.0 10.1 -1.8 26 8.3 NNW 30 37 16 20 1002.6 1002.6 0.0
19/08:00pm 17.7 10.9 -1.5 27 8.1 NNW 24 35 13 19 1002.9 1002.9 0.0
19/07:30pm 16.7 10.8 -2.4 27 7.8 NNW 19 22 10 12 1003.2 1003.2 0.0
19/07:00pm 17.2 10.8 -1.9 27 8.0 NNW 22 30 12 16 1003.4 1003.4 0.0
19/06:30pm 17.8 11.4 -1.4 27 8.1 NNW 22 32 12 17 1003.3 1003.3 0.0
19/06:00pm 18.1 12.3 -1.2 27 8.2 NNW 19 28 10 15 1003.2 1003.2 0.0
19/05:30pm 18.6 12.7 -0.7 27 8.3 NW 20 26 11 14 1003.2 1003.2 0.0
19/05:00pm 19.7 13.9 -0.3 26 8.8 NNW 20 33 11 18 1003.2 1003.2 0.0
19/04:30pm 21.0 15.6 1.3 27 9.0 NNW 19 26 10 14 1003.5 1003.5 0.0
19/04:00pm 21.9 14.3 0.4 24 9.8 NW 30 41 16 22 1003.9 1003.9 0.0
19/03:30pm 22.6 15.2 1.6 25 9.8 NW 30 44 16 24 1004.2 1004.2 0.0
19/03:00pm 22.9 15.7 2.9 27 9.6 NW 30 39 16 21 1004.6 1004.6 0.0
19/02:30pm 22.7 14.2 1.1 24 10.0 NW 35 48 19 26 1004.9 1004.9 0.0
19/02:22pm 22.7 15.4 2.2 26 9.7 NW 30 48 16 26 1004.9 1004.9 0.0
19/02:00pm 23.1 16.7 3.1 27 9.7 NW 26 39 14 21 1005.3 1005.3 0.0
19/01:39pm 22.4 14.6 1.4 25 9.7 NW 32 54 17 29 1005.7 1005.7 0.0
19/01:30pm 22.4 14.5 2.5 27 9.4 NW 33 50 18 27 1005.9 1005.9 0.0
19/01:01pm 22.0 14.2 1.6 26 9.5 NW 32 50 17 27 1006.2 1006.2 0.0
19/01:00pm 22.1 14.8 2.2 27 9.4 NW 30 43 16 23 1006.2 1006.2 0.0
19/12:30pm 21.7 15.4 3.9 31 8.6 NW 26 44 14 24 1007.0 1007.0 0.0
19/12:00pm 20.2 13.4 3.0 32 8.1 NW 28 41 15 22 1007.8 1007.8 0.0
19/11:30am 19.7 13.6 5.0 38 7.2 NNW 26 33 14 18 1008.8 1008.8 0.0
19/11:00am 19.1 13.1 5.2 40 6.8 NW 26 37 14 20 1009.5 1009.5 0.0
19/10:30am 18.1 12.9 5.7 44 6.1 NNW 22 30 12 16 1010.2 1010.2 0.0
19/10:00am 16.9 12.5 4.9 45 5.7 NW 17 26 9 14 1010.9 1010.9 0.0
19/09:30am 16.1 13.1 6.0 51 4.9 NW 11 19 6 10 1011.3 1011.3 0.0
19/09:00am 14.4 11.9 6.5 59 3.8 NNW 9 19 5 10 1011.5 1011.5 0.4
19/08:30am 12.3 8.2 6.4 67 2.8 N 17 22 9 12 1011.5 1011.5 0.4
19/08:00am 10.9 6.4 6.3 73 2.2 N 19 22 10 12 1011.6 1011.6 0.4
19/07:30am 9.6 7.9 7.7 88 0.9 ESE 6 9 3 5 1011.8 1011.8 0.4
19/07:00am 8.0 7.1 6.1 88 0.9 CALM 0 0 0 0 1011.7 1011.7 0.4
19/06:30am 9.4 7.0 7.0 85 1.1 NNE 9 15 5 8 1011.8 1011.8 0.4
19/06:00am 9.3 5.9 7.6 89 0.8 NNE 15 22 8 12 1011.8 1011.8 0.4
19/05:30am 9.3 4.6 7.7 90 0.8 NNE 22 28 12 15 1011.9 1011.9 0.4
19/05:00am 9.6 4.2 8.2 91 0.7 N 26 33 14 18 1012.1 1012.1 0.4
19/04:30am 9.9 4.6 8.5 91 0.7 N 26 39 14 21 1012.3 1012.3 0.4
19/04:00am 10.4 6.6 9.0 91 0.7 N 19 26 10 14 1012.6 1012.6 0.4
19/03:30am 10.4 5.6 9.0 91 0.7 N 24 32 13 17 1013.0 1013.0 0.4
19/03:00am 10.5 5.4 9.3 92 0.6 N 26 35 14 19 1013.3 1013.3 0.4
19/02:30am 10.9 4.8 9.7 92 0.6 N 32 43 17 23 1013.6 1013.6 0.4
19/02:00am 11.5 7.0 10.1 91 0.7 N 24 32 13 17 1014.1 1014.1 0.4
19/01:30am 12.1 8.5 10.5 90 0.8 N 20 28 11 15 1014.8 1014.9 0.4
19/01:00am 13.1 9.8 11.0 87 1.1 N 19 26 10 14 1015.1 1015.2 0.4
19/12:30am 13.5 10.1 11.4 87 1.1 N 20 28 11 15 1015.7 1015.7 0.4
19/12:00am 13.6 10.9 11.7 88 1.0 NNE 17 24 9 13 1016.1 1016.1 0.4
 
Date/Time
WST
Temp
°C
App
Temp
°C
Dew
Point
°C
Rel
Hum
%
Delta-T
°C
Wind Press
QNH
hPa
Press
MSL
hPa
Rain since
9am
mm
Dir  Spd
km/h
Gust
km/h
Spd
kts
Gust
kts
18/11:30pm 13.2 10.4 11.4 89 1.0 N 17 22 9 12 1016.5 1016.5 0.4
18/11:00pm 13.0 10.6 11.4 90 0.8 N 15 19 8 10 1016.8 1016.8 0.4
18/10:30pm 12.9 12.0 11.5 91 0.7 N 7 11 4 6 1017.2 1017.2 0.4
18/10:00pm 12.9 10.9 11.6 92 0.7 NNE 13 17 7 9 1017.4 1017.4 0.4
18/09:30pm 12.4 10.5 11.8 96 0.3 NNE 13 17 7 9 1017.6 1017.6 0.4
18/09:00pm 11.2 9.3 10.6 96 0.3 NNE 11 13 6 7 1017.8 1017.8 0.4
18/08:30pm 11.3 9.4 10.5 95 0.4 NE 11 15 6 8 1018.2 1018.2 0.4
18/08:00pm 11.5 10.0 10.6 94 0.5 NNE 9 11 5 6 1018.5 1018.5 0.4
18/07:30pm 12.0 10.9 10.6 91 0.7 NE 7 11 4 6 1018.6 1018.6 0.4
18/07:00pm 12.5 11.5 11.1 91 0.7 NE 7 9 4 5 1018.7 1018.7 0.4
18/06:30pm 13.0 12.0 11.1 88 1.0 NE 7 9 4 5 1018.7 1018.7 0.4
18/06:00pm 13.4 12.1 11.1 86 1.2 NE 9 11 5 6 1018.5 1018.5 0.4
18/05:30pm 13.7 12.3 11.0 84 1.4 ENE 9 11 5 6 1018.3 1018.3 0.4
18/05:00pm 14.0 12.6 10.8 81 1.7 ESE 9 9 5 5 1018.3 1018.3 0.4
18/04:30pm 14.7 13.2 10.7 77 2.1 E 9 15 5 8 1018.3 1018.3 0.4
18/04:00pm 15.3 13.8 10.5 73 2.5 ESE 9 13 5 7 1018.4 1018.4 0.4
18/03:30pm 15.8 14.5 11.2 74 2.5 E 9 11 5 6 1018.4 1018.4 0.4
18/03:00pm 15.5 15.0 10.9 74 2.4 ESE 4 7 2 4 1018.8 1018.8 0.4
18/02:30pm 15.0 14.4 11.8 81 1.7 E 6 7 3 4 1018.9 1018.9 0.4
18/02:00pm 14.2 13.8 12.4 89 1.0 NNE 6 7 3 4 1019.2 1019.2 0.4
18/01:30pm 14.6 14.4 11.7 83 1.6 ESE 4 7 2 4 1019.5 1019.5 0.4
18/01:00pm 15.1 13.9 11.5 79 1.9 SSE 9 11 5 6 1019.6 1019.6 0.0
18/12:30pm 15.9 15.4 12.1 78 2.1 E 6 9 3 5 1019.9 1019.9 0.0
18/12:00pm 15.9 15.6 13.2 84 1.5 N 7 9 4 5 1020.2 1020.2 0.0
18/11:30am 14.4 14.4 14.2 99 0.1 NNW 7 9 4 5 1020.8 1020.8 0.0
18/11:10am 13.9 13.7 13.7 99 0.1 NNW 7 9 4 5 1021.0 1021.0 0.0
18/11:00am 13.3 12.6 13.1 99 0.1 NNW 9 13 5 7 1021.1 1021.1 0.0
18/10:30am 13.2 12.8 13.0 99 0.1 NW 7 11 4 6 1021.3 1021.3 0.0
18/10:20am 13.1 12.7 12.9 99 0.1 WNW 7 9 4 5 1021.3 1021.3 0.0
18/10:08am 13.1 12.3 12.9 99 0.1 WNW 9 11 5 6 1021.3 1021.3 0.0
18/10:00am 13.0 12.2 12.8 99 0.1 NW 9 11 5 6 1021.3 1021.3 0.0
18/09:57am 13.2 12.4 13.0 99 0.1 NW 9 11 5 6 1021.3 1021.3 0.0
18/09:30am 12.9 12.0 12.7 99 0.1 NW 9 11 5 6 1021.3 1021.3 0.0
18/09:00am 11.7 10.5 11.5 99 0.1 NNW 9 11 5 6 1021.1 1021.1 0.6
18/08:30am 10.5 8.9 10.2 98 0.2 NW 9 11 5 6 1020.8 1020.8 0.6
18/08:00am 10.1 7.3 8.7 91 0.7 WNW 13 17 7 9 1020.7 1020.7 0.4
18/07:39am 10.7 8.5 7.8 82 1.4 WNW 9 13 5 7 1020.5 1020.5 0.2
18/07:30am 10.9 8.3 7.6 80 1.6 WNW 11 13 6 7 1020.3 1020.3 0.2
18/07:00am 9.8 7.0 6.9 82 1.4 NW 11 15 6 8 1019.8 1019.8 0.2
18/06:30am 10.2 6.9 6.4 77 1.8 WNW 13 17 7 9 1019.7 1019.7 0.2
18/06:00am 10.1 6.7 5.7 74 2.0 WNW 13 17 7 9 1019.5 1019.5 0.2
18/05:30am 9.7 6.2 5.5 75 1.9 WNW 13 19 7 10 1019.1 1019.1 0.2
18/05:00am 9.4 5.4 4.8 73 2.1 NW 15 19 8 10 1018.7 1018.7 0.2
18/04:30am 9.5 5.4 4.3 70 2.3 WNW 15 19 8 10 1018.6 1018.6 0.2
18/04:00am 9.9 5.4 4.3 68 2.5 NW 17 19 9 10 1018.4 1018.4 0.2
18/03:30am 9.8 5.2 3.8 66 2.6 NW 17 20 9 11 1018.6 1018.6 0.2
18/03:00am 10.0 5.7 3.5 64 2.8 NW 15 17 8 9 1018.6 1018.6 0.2
18/02:30am 10.6 5.9 3.4 61 3.2 NW 17 19 9 10 1018.5 1018.5 0.2
18/02:00am 10.6 6.3 3.4 61 3.1 NW 15 19 8 10 1018.6 1018.6 0.2
18/01:30am 10.0 5.7 3.1 62 3.0 NW 15 17 8 9 1018.6 1018.6 0.2
18/01:00am 11.0 6.6 2.8 57 3.5 WNW 15 22 8 12 1018.7 1018.7 0.2
18/12:30am 11.7 6.0 3.0 55 3.8 NW 22 26 12 14 1018.6 1018.6 0.2
18/12:00am 11.6 6.2 2.6 54 3.9 NW 20 24 11 13 1018.8 1018.8 0.2
 
Date/Time
WST
Temp
°C
App
Temp
°C
Dew
Point
°C
Rel
Hum
%
Delta-T
°C
Wind Press
QNH
hPa
Press
MSL
hPa
Rain since
9am
mm
Dir  Spd
km/h
Gust
km/h
Spd
kts
Gust
kts
17/11:30pm 11.7 6.3 2.7 54 3.9 NW 20 26 11 14 1019.0 1019.0 0.2
17/11:00pm 11.9 7.1 2.4 52 4.1 WNW 17 22 9 12 1019.2 1019.2 0.2
17/10:30pm 11.6 7.5 2.4 53 4.0 NW 13 17 7 9 1019.5 1019.5 0.2
17/10:00pm 12.4 7.5 2.3 50 4.4 WNW 17 22 9 12 1019.6 1019.6 0.2
17/09:30pm 13.3 9.2 2.5 48 4.7 NW 13 19 7 10 1019.5 1019.5 0.2
17/09:00pm 13.0 9.0 2.6 49 4.6 NW 13 17 7 9 1019.7 1019.7 0.2
17/08:30pm 13.2 8.7 2.1 47 4.8 NW 15 17 8 9 1019.8 1019.8 0.2
17/08:00pm 14.5 9.9 1.8 42 5.5 NW 15 17 8 9 1019.7 1019.7 0.2
17/07:30pm 14.1 10.2 1.4 42 5.5 WNW 11 15 6 8 1019.6 1019.6 0.2
17/07:00pm 15.9 11.3 1.6 38 6.3 W 15 26 8 14 1019.6 1019.6 0.2
17/06:30pm 15.9 11.3 1.6 38 6.3 N 15 19 8 10 1019.2 1019.2 0.2
17/06:00pm 16.5 12.4 2.5 39 6.3 N 13 15 7 8 1019.1 1019.1 0.2
17/05:30pm 17.5 13.4 2.3 36 6.9 NNW 13 17 7 9 1019.0 1019.0 0.2
17/05:00pm 18.7 14.7 2.9 35 7.3 NNW 13 15 7 8 1018.8 1018.8 0.2
17/04:30pm 20.3 16.3 3.1 32 8.1 NNW 13 19 7 10 1019.0 1019.0 0.2
17/04:00pm 21.2 16.1 3.0 30 8.6 NNW 19 24 10 13 1019.2 1019.2 0.2
17/03:30pm 21.4 15.7 2.6 29 8.8 NW 22 30 12 16 1019.3 1019.3 0.2
17/03:00pm 21.8 16.1 3.0 29 8.9 NNW 22 32 12 17 1019.5 1019.5 0.2
17/02:30pm 22.1 16.9 3.7 30 8.9 NNW 20 30 11 16 1019.6 1019.6 0.2
17/02:00pm 21.7 16.6 3.9 31 8.6 NW 20 24 11 13 1020.1 1020.1 0.2
17/01:30pm 21.8 16.5 4.8 33 8.4 NW 22 30 12 16 1020.4 1020.4 0.2
17/01:00pm 21.4 17.2 5.7 36 7.8 NW 17 26 9 14 1021.0 1021.0 0.2
17/12:30pm 20.7 16.1 5.5 37 7.5 NNW 19 24 10 13 1021.8 1021.8 0.2
17/12:00pm 20.0 15.6 6.4 41 6.8 NW 19 26 10 14 1022.5 1022.5 0.0
17/11:30am 19.1 15.4 6.2 43 6.4 NNW 15 20 8 11 1023.5 1023.5 0.0
17/11:00am 18.4 15.0 5.9 44 6.1 NNW 13 17 7 9 1024.0 1024.0 0.0
17/10:30am 17.3 15.0 7.4 52 5.0 NW 9 13 5 7 1024.4 1024.4 0.0
17/10:00am 15.4 13.0 7.2 58 4.0 NNW 9 11 5 6 1024.9 1024.9 0.0
17/09:30am 12.8 10.5 5.7 62 3.3 NW 7 11 4 6 1025.1 1025.1 0.0
17/09:00am 10.9 9.0 6.5 74 2.1 NW 6 7 3 4 1025.2 1025.2 0.0
17/08:30am 8.9 7.3 6.3 84 1.2 N 4 6 2 3 1025.2 1025.2 0.0
17/08:00am 7.1 5.0 5.6 90 0.7 N 6 7 3 4 1025.3 1025.3 0.0
17/07:30am 5.8 3.3 4.9 94 0.4 N 7 9 4 5 1025.3 1025.3 0.0
17/07:00am 5.1 2.1 4.1 93 0.4 N 9 9 5 5 1025.2 1025.2 0.0
17/06:30am 5.5 3.0 4.5 93 0.4 NNW 7 9 4 5 1025.3 1025.3 0.0
17/06:00am 6.4 4.6 5.2 92 0.5 NNW 4 6 2 3 1025.3 1025.3 0.0
17/05:30am 5.7 3.2 4.8 94 0.4 NW 7 7 4 4 1025.2 1025.2 0.0

Other formats

Comma delimited format used in spreadsheet applications
http://www.bom.gov.au/fwo/IDW60801/IDW60801.94638.axf

JavaScript Object Notation format (JSON) in row-major order
http://www.bom.gov.au/fwo/IDW60801/IDW60801.94638.json

Data quality

Most of these data are generated automatically and are frequently updated. Quality checks on data are not normally performed. It is possible for incorrect values to appear. Refer to information at About Latest Weather Observations and please check the disclaimer before using these data.